createdAt,value
2023-05-23T00:01:20.179Z,19.88
2023-05-23T00:03:49.529Z,20.67
2023-05-23T00:06:25.685Z,19.75
2023-05-23T00:08:53.699Z,19.70
2023-05-23T00:11:26.888Z,20.23
2023-05-23T00:13:55.068Z,19.85
2023-05-23T00:16:25.684Z,18.30
2023-05-23T00:18:53.688Z,19.67
2023-05-23T00:21:23.895Z,22.10
2023-05-23T00:23:53.878Z,21.38
2023-05-23T00:26:24.267Z,21.13
2023-05-23T00:28:53.622Z,20.92
2023-05-23T00:31:21.331Z,22.70
2023-05-23T00:33:49.036Z,22.85
2023-05-23T00:36:16.700Z,22.55
2023-05-23T00:38:45.926Z,22.83
2023-05-23T00:41:13.608Z,24.42
2023-05-23T00:43:41.715Z,24.90
2023-05-23T00:46:09.823Z,23.20
2023-05-23T00:48:39.126Z,23.17
2023-05-23T00:51:06.922Z,25.05
2023-05-23T00:53:36.772Z,26.65
2023-05-23T00:56:06.050Z,24.90
2023-05-23T00:58:33.721Z,27.63
2023-05-23T01:01:01.943Z,26.00
2023-05-23T01:03:30.378Z,25.38
2023-05-23T01:05:58.237Z,28.10
2023-05-23T01:08:25.902Z,28.10
2023-05-23T01:10:53.726Z,26.45
2023-05-23T01:13:35.473Z,25.92
2023-05-23T01:16:07.228Z,25.15
2023-05-23T01:18:42.339Z,28.23
2023-05-23T01:21:12.124Z,27.77
2023-05-23T01:23:57.594Z,29.35
2023-05-23T01:26:35.080Z,29.48
2023-05-23T01:29:10.570Z,29.17
2023-05-23T01:31:41.660Z,27.67
2023-05-23T01:34:09.765Z,29.73
2023-05-23T01:36:44.136Z,30.33
2023-05-23T01:39:12.437Z,26.70
2023-05-23T01:41:40.087Z,27.40
2023-05-23T01:44:09.417Z,27.05
2023-05-23T01:46:39.363Z,31.58
2023-05-23T01:49:08.121Z,26.88
2023-05-23T01:51:35.919Z,25.80
2023-05-23T01:54:03.843Z,27.42
2023-05-23T01:56:32.817Z,24.50
2023-05-23T01:59:32.349Z,26.92
2023-05-23T02:02:01.598Z,24.80
2023-05-23T02:04:29.307Z,26.67
2023-05-23T02:06:57.073Z,27.13
2023-05-23T02:09:24.781Z,24.13
2023-05-23T02:11:52.476Z,24.05
2023-05-23T02:14:20.118Z,25.80
2023-05-23T02:16:52.788Z,25.77
2023-05-23T02:19:21.896Z,26.55
2023-05-23T02:21:49.580Z,25.55
2023-05-23T02:24:17.269Z,24.27
2023-05-23T02:26:45.052Z,29.95
2023-05-23T02:29:12.825Z,24.60
2023-05-23T02:31:40.628Z,23.73
2023-05-23T02:34:08.315Z,24.48
2023-05-23T02:36:37.405Z,23.25
2023-05-23T02:39:05.489Z,24.30
2023-05-23T02:41:33.782Z,24.10
2023-05-23T02:44:04.009Z,26.17
2023-05-23T02:46:35.728Z,21.90
2023-05-23T02:49:03.521Z,23.40
2023-05-23T02:51:33.197Z,25.42
2023-05-23T02:54:02.250Z,25.58
2023-05-23T02:56:30.295Z,23.73
2023-05-23T02:58:58.006Z,22.80
2023-05-23T03:01:25.841Z,25.20
2023-05-23T03:03:53.621Z,25.63
2023-05-23T03:06:22.444Z,25.75
2023-05-23T03:08:51.285Z,25.15
2023-05-23T03:11:20.354Z,23.75
2023-05-23T03:13:47.977Z,25.10
2023-05-23T03:16:15.668Z,23.00
2023-05-23T03:18:43.854Z,25.00
2023-05-23T03:21:11.511Z,25.63
2023-05-23T03:23:39.777Z,28.88
2023-05-23T03:26:07.649Z,29.13
2023-05-23T03:28:37.395Z,33.08
2023-05-23T03:31:05.126Z,32.60
2023-05-23T03:33:32.785Z,29.88
2023-05-23T03:36:00.553Z,27.42
2023-05-23T03:38:28.508Z,31.65
2023-05-23T03:40:56.193Z,33.65
2023-05-23T03:43:23.828Z,28.33
2023-05-23T03:45:54.388Z,27.45
2023-05-23T03:48:22.171Z,25.08
2023-05-23T03:50:49.792Z,24.58
2023-05-23T03:53:17.534Z,25.35
2023-05-23T03:55:45.169Z,24.60
2023-05-23T03:58:12.822Z,23.48
2023-05-23T04:00:41.089Z,25.75
2023-05-23T04:03:42.241Z,22.27
2023-05-23T04:06:12.964Z,24.25
2023-05-23T04:08:43.652Z,22.75
2023-05-23T04:11:11.348Z,22.73
2023-05-23T04:13:38.970Z,23.17
2023-05-23T04:16:07.100Z,21.48
2023-05-23T04:18:34.802Z,22.80
2023-05-23T04:21:02.591Z,23.40
2023-05-23T04:23:31.625Z,20.67
2023-05-23T04:25:59.378Z,20.73
2023-05-23T04:28:27.715Z,20.10
2023-05-23T04:30:56.481Z,19.98
2023-05-23T04:33:24.339Z,17.90
2023-05-23T04:35:52.278Z,19.50
2023-05-23T04:38:22.171Z,18.77
2023-05-23T04:40:51.237Z,19.17
2023-05-23T04:43:20.007Z,15.82
2023-05-23T04:45:49.947Z,18.52
2023-05-23T04:48:21.636Z,17.15
2023-05-23T04:50:51.251Z,17.15
2023-05-23T04:53:18.954Z,14.88
2023-05-23T04:55:47.102Z,14.55
2023-05-23T04:58:16.626Z,15.38
2023-05-23T05:00:44.581Z,13.43
2023-05-23T05:03:12.651Z,14.73
2023-05-23T05:05:40.754Z,12.50
2023-05-23T05:08:08.614Z,12.88
2023-05-23T05:10:36.239Z,10.93
2023-05-23T05:13:04.002Z,13.77
2023-05-23T05:15:33.652Z,12.15
2023-05-23T05:18:01.307Z,10.80
2023-05-23T05:20:29.067Z,13.20
2023-05-23T05:22:57.010Z,12.60
2023-05-23T05:25:24.983Z,12.05
2023-05-23T05:27:52.753Z,12.10
2023-05-23T05:30:20.849Z,12.45
2023-05-23T05:32:50.770Z,13.20
2023-05-23T05:35:19.584Z,13.07
2023-05-23T05:37:47.212Z,12.88
2023-05-23T05:40:15.006Z,12.27
2023-05-23T05:42:42.753Z,14.32
2023-05-23T05:45:11.529Z,13.98
2023-05-23T05:47:39.474Z,11.88
2023-05-23T05:50:10.787Z,12.60
2023-05-23T05:52:39.752Z,12.65
2023-05-23T05:55:08.857Z,11.07
2023-05-23T05:57:38.745Z,11.43
2023-05-23T06:00:13.614Z,11.20
2023-05-23T06:02:41.785Z,12.00
2023-05-23T06:05:12.400Z,12.10
2023-05-23T06:07:40.316Z,12.65
2023-05-23T06:10:08.830Z,11.55
2023-05-23T06:12:36.749Z,13.20
2023-05-23T06:15:04.574Z,11.73
2023-05-23T06:17:32.296Z,11.40
2023-05-23T06:20:00.015Z,11.02
2023-05-23T06:22:29.345Z,10.57
2023-05-23T06:24:57.134Z,9.35
2023-05-23T06:27:24.985Z,10.10
2023-05-23T06:29:52.800Z,10.23
2023-05-23T06:32:20.671Z,7.68
2023-05-23T06:34:48.374Z,8.50
2023-05-23T06:37:16.668Z,6.80
2023-05-23T06:39:45.725Z,5.22
2023-05-23T06:42:13.380Z,6.07
2023-05-23T06:44:41.313Z,6.80
2023-05-23T06:47:10.051Z,8.00
2023-05-23T06:49:37.713Z,9.32
2023-05-23T06:52:05.544Z,8.57
2023-05-23T06:54:33.221Z,7.25
2023-05-23T06:57:02.241Z,8.60
2023-05-23T06:59:30.002Z,6.72
2023-05-23T07:01:57.689Z,7.47
2023-05-23T07:04:25.464Z,7.53
2023-05-23T07:06:53.314Z,8.27
2023-05-23T07:09:21.756Z,9.25
2023-05-23T07:11:49.463Z,8.00
2023-05-23T07:14:19.149Z,7.70
2023-05-23T07:16:48.172Z,8.15
2023-05-23T07:19:16.374Z,7.82
2023-05-23T07:21:44.026Z,6.85
2023-05-23T07:24:11.725Z,8.10
2023-05-23T07:26:39.434Z,6.50
2023-05-23T07:29:07.134Z,7.22
2023-05-23T07:31:36.186Z,6.72
2023-05-23T07:34:04.217Z,7.18
2023-05-23T07:36:34.485Z,6.82
2023-05-23T07:39:02.482Z,7.95
2023-05-23T07:41:30.214Z,9.23
2023-05-23T07:43:57.960Z,7.15
2023-05-23T07:46:25.899Z,9.30
2023-05-23T07:48:55.500Z,8.50
2023-05-23T07:51:23.161Z,9.30
2023-05-23T07:53:50.824Z,6.22
2023-05-23T07:56:18.517Z,8.27
2023-05-23T07:58:46.256Z,8.82
2023-05-23T08:01:13.907Z,10.00
2023-05-23T08:03:41.734Z,10.85
2023-05-23T08:06:11.167Z,9.73
2023-05-23T08:08:38.858Z,9.18
2023-05-23T08:11:06.752Z,9.07
2023-05-23T08:13:34.559Z,8.75
2023-05-23T08:16:02.451Z,8.73
2023-05-23T08:18:31.144Z,10.63
2023-05-23T08:20:58.949Z,8.63
2023-05-23T08:23:27.964Z,11.20
2023-05-23T08:25:56.030Z,10.45
2023-05-23T08:28:24.036Z,8.48
2023-05-23T08:30:51.894Z,9.77
2023-05-23T08:33:19.579Z,9.75
2023-05-23T08:35:47.222Z,8.18
2023-05-23T08:38:15.251Z,10.02
2023-05-23T08:40:46.762Z,9.85
2023-05-23T08:43:14.578Z,7.95
2023-05-23T08:45:42.611Z,8.02
2023-05-23T08:48:13.448Z,7.28
2023-05-23T08:50:42.033Z,7.47
2023-05-23T08:53:10.434Z,7.75
2023-05-23T08:55:39.002Z,7.10
2023-05-23T08:58:08.125Z,6.68
2023-05-23T09:00:36.261Z,7.43
2023-05-23T09:03:04.186Z,7.10
2023-05-23T09:05:31.977Z,8.65
2023-05-23T09:07:59.863Z,7.40
2023-05-23T09:10:29.984Z,9.95
2023-05-23T09:12:59.936Z,7.63
2023-05-23T09:15:29.228Z,7.97
2023-05-23T09:18:01.874Z,5.82
2023-05-23T09:20:29.967Z,5.55
2023-05-23T09:22:57.713Z,4.15
2023-05-23T09:25:25.584Z,4.25
2023-05-23T09:27:53.657Z,3.55
2023-05-23T09:30:21.477Z,3.92
2023-05-23T09:33:04.703Z,3.67
2023-05-23T09:35:33.491Z,2.65
2023-05-23T09:38:01.628Z,2.38
2023-05-23T09:40:33.233Z,3.25
2023-05-23T09:43:04.825Z,3.00
2023-05-23T09:45:33.375Z,3.47
2023-05-23T09:48:02.768Z,4.13
2023-05-23T09:50:33.436Z,4.13
2023-05-23T09:53:01.378Z,2.92
2023-05-23T09:55:29.110Z,3.05
2023-05-23T09:57:57.216Z,3.53
2023-05-23T10:00:26.056Z,3.50
2023-05-23T10:02:55.907Z,2.63
2023-05-23T10:05:35.855Z,2.20
2023-05-23T10:08:07.415Z,3.00
2023-05-23T10:10:36.657Z,3.60
2023-05-23T10:13:07.056Z,4.32
2023-05-23T10:15:37.263Z,3.67
2023-05-23T10:18:09.038Z,3.85
2023-05-23T10:20:40.241Z,2.65
2023-05-23T10:23:08.299Z,2.88
2023-05-23T10:25:37.226Z,4.60
2023-05-23T10:28:06.010Z,3.70
2023-05-23T10:30:33.961Z,3.20
2023-05-23T10:33:01.873Z,4.18
2023-05-23T10:35:38.602Z,3.67
2023-05-23T10:38:12.565Z,3.67
2023-05-23T10:40:47.752Z,2.90
2023-05-23T10:45:49.851Z,2.70
2023-05-23T10:48:24.090Z,2.75
2023-05-23T10:51:05.198Z,3.15
2023-05-23T10:53:36.366Z,4.85
2023-05-23T10:56:06.230Z,4.68
2023-05-23T10:58:34.225Z,4.05
2023-05-23T11:01:02.489Z,3.70
2023-05-23T11:03:35.441Z,2.20
2023-05-23T11:06:03.747Z,2.90
2023-05-23T11:08:47.868Z,3.40
2023-05-23T11:11:16.312Z,2.97
2023-05-23T11:14:04.962Z,3.65
2023-05-23T11:16:33.357Z,3.50
2023-05-23T11:19:20.257Z,3.67
2023-05-23T11:21:50.795Z,3.72
2023-05-23T11:24:19.829Z,4.00
2023-05-23T11:26:54.052Z,4.30
2023-05-23T11:29:21.894Z,3.33
2023-05-23T11:31:49.654Z,3.35
2023-05-23T11:34:17.392Z,4.70
2023-05-23T11:36:45.087Z,3.28
2023-05-23T11:39:14.594Z,3.15
2023-05-23T11:41:44.455Z,3.28
2023-05-23T11:44:12.458Z,3.47
2023-05-23T11:46:40.213Z,3.05
2023-05-23T11:49:17.286Z,3.20
2023-05-23T11:51:44.933Z,2.83
2023-05-23T11:54:12.800Z,2.47
2023-05-23T11:56:41.065Z,3.20
2023-05-23T11:59:10.233Z,2.63
2023-05-23T12:01:38.322Z,4.20
2023-05-23T12:04:10.728Z,3.58
2023-05-23T12:06:40.420Z,3.28
2023-05-23T12:09:08.745Z,3.67
2023-05-23T12:11:36.479Z,3.08
2023-05-23T12:14:06.516Z,2.95
2023-05-23T12:16:36.284Z,4.22
2023-05-23T12:19:06.803Z,3.08
2023-05-23T12:21:44.513Z,3.20
2023-05-23T12:24:18.974Z,2.67
2023-05-23T12:26:53.549Z,3.35
2023-05-23T12:29:22.313Z,2.92
2023-05-23T12:31:52.489Z,3.60
2023-05-23T12:34:23.532Z,3.25
2023-05-23T12:36:57.128Z,3.25
2023-05-23T12:39:33.738Z,2.70
2023-05-23T12:42:08.601Z,3.58
2023-05-23T12:44:36.781Z,2.58
2023-05-23T12:47:06.425Z,3.75
2023-05-23T12:49:34.089Z,3.22
2023-05-23T12:52:01.782Z,3.28
2023-05-23T12:54:29.480Z,3.85
2023-05-23T12:56:57.163Z,2.08
2023-05-23T12:59:24.868Z,2.45
2023-05-23T13:01:52.585Z,2.63
2023-05-23T13:04:21.763Z,2.95
2023-05-23T13:06:49.601Z,3.25
2023-05-23T13:09:17.685Z,3.03
2023-05-23T13:11:45.404Z,3.60
2023-05-23T13:14:13.837Z,2.65
2023-05-23T13:16:42.009Z,2.63
2023-05-23T13:19:09.767Z,3.20
2023-05-23T13:21:38.950Z,3.13
2023-05-23T13:24:06.889Z,2.20
2023-05-23T13:26:34.836Z,2.55
2023-05-23T13:29:02.675Z,2.42
2023-05-23T13:31:30.751Z,2.58
2023-05-23T13:33:58.440Z,2.65
2023-05-23T13:36:26.928Z,3.22
2023-05-23T13:38:55.940Z,2.38
2023-05-23T13:41:23.669Z,2.40
2023-05-23T13:43:51.377Z,2.60
2023-05-23T13:46:19.141Z,2.53
2023-05-23T13:48:46.958Z,2.83
2023-05-23T13:51:14.659Z,2.97
2023-05-23T13:53:42.388Z,2.50
2023-05-23T13:56:11.572Z,3.75
2023-05-23T13:58:39.258Z,3.20
2023-05-23T14:01:06.952Z,2.42
2023-05-23T14:03:34.699Z,2.67
2023-05-23T14:06:04.918Z,2.53
2023-05-23T14:08:33.706Z,2.60
2023-05-23T14:11:01.458Z,2.85
2023-05-23T14:13:31.549Z,3.42
2023-05-23T14:15:59.319Z,3.05
2023-05-23T14:18:27.091Z,3.28
2023-05-23T14:20:55.475Z,3.00
2023-05-23T14:23:25.026Z,3.47
2023-05-23T14:25:52.745Z,2.80
2023-05-23T14:28:21.221Z,2.55
2023-05-23T14:30:50.290Z,3.05
2023-05-23T14:33:18.748Z,2.95
2023-05-23T14:35:46.455Z,2.47
2023-05-23T14:38:14.085Z,3.65
2023-05-23T14:40:44.116Z,4.43
2023-05-23T14:43:12.651Z,4.18
2023-05-23T14:45:40.682Z,2.90
2023-05-23T14:48:10.788Z,2.53
2023-05-23T14:50:38.660Z,2.50
2023-05-23T14:53:06.360Z,3.28
2023-05-23T14:55:34.038Z,2.78
2023-05-23T14:58:03.471Z,2.75
2023-05-23T15:00:31.160Z,2.90
2023-05-23T15:02:58.871Z,2.88
2023-05-23T15:05:27.916Z,2.55
2023-05-23T15:07:56.588Z,3.10
2023-05-23T15:10:25.278Z,2.75
2023-05-23T15:12:52.976Z,2.75
2023-05-23T15:15:23.333Z,2.58
2023-05-23T15:17:51.479Z,3.22
2023-05-23T15:20:19.174Z,3.35
2023-05-23T15:22:48.688Z,2.30
2023-05-23T15:25:16.405Z,2.60
2023-05-23T15:27:45.964Z,3.33
2023-05-23T15:30:13.754Z,2.72
2023-05-23T15:32:41.476Z,2.45
2023-05-23T15:35:09.632Z,3.00
2023-05-23T15:37:37.290Z,2.47
2023-05-23T15:40:06.894Z,2.60
2023-05-23T15:42:34.754Z,2.72
2023-05-23T15:45:02.428Z,2.40
2023-05-23T15:47:30.273Z,2.05
2023-05-23T15:49:57.997Z,2.33
2023-05-23T15:52:25.803Z,1.92
2023-05-23T15:54:53.528Z,3.45
2023-05-23T15:57:23.414Z,3.03
2023-05-23T15:59:51.163Z,2.92
2023-05-23T16:02:19.173Z,3.00
2023-05-23T16:04:46.929Z,2.38
2023-05-23T16:07:16.407Z,3.05
2023-05-23T16:09:46.025Z,4.00
2023-05-23T16:12:13.780Z,3.03
2023-05-23T16:14:42.825Z,2.80
2023-05-23T16:17:10.532Z,2.90
2023-05-23T16:19:38.393Z,2.38
2023-05-23T16:22:07.685Z,2.45
2023-05-23T16:24:35.541Z,2.50
2023-05-23T16:27:06.296Z,3.10
2023-05-23T16:29:34.087Z,2.13
2023-05-23T16:32:03.301Z,2.20
2023-05-23T16:34:31.084Z,3.17
2023-05-23T16:36:58.810Z,2.38
2023-05-23T16:39:26.501Z,2.78
2023-05-23T16:41:54.512Z,2.42
2023-05-23T16:44:23.542Z,2.20
2023-05-23T16:46:51.584Z,2.30
2023-05-23T16:49:32.246Z,2.70
2023-05-23T16:51:59.884Z,2.72
2023-05-23T16:54:27.633Z,3.03
2023-05-23T16:56:55.508Z,2.90
2023-05-23T16:59:23.190Z,2.40
2023-05-23T17:01:51.202Z,2.20
2023-05-23T17:04:20.596Z,2.03
2023-05-23T17:06:48.568Z,2.30
2023-05-23T17:09:17.917Z,2.70
2023-05-23T17:11:45.786Z,1.90
2023-05-23T17:14:13.570Z,3.22
2023-05-23T17:16:41.609Z,2.35
2023-05-23T17:19:09.617Z,2.28
2023-05-23T17:21:42.907Z,2.75
2023-05-23T17:24:10.609Z,3.00
2023-05-23T17:26:38.272Z,2.05
2023-05-23T17:29:06.047Z,2.20
2023-05-23T17:31:33.838Z,2.25
2023-05-23T17:34:01.576Z,2.22
2023-05-23T17:36:29.280Z,1.73
2023-05-23T17:38:58.352Z,2.22
2023-05-23T17:41:26.951Z,2.38
2023-05-23T17:43:59.329Z,2.22
2023-05-23T17:46:27.392Z,2.92
2023-05-23T17:48:55.131Z,2.25
2023-05-23T17:51:23.814Z,2.55
2023-05-23T17:53:55.049Z,1.90
2023-05-23T17:56:25.097Z,3.05
2023-05-23T17:58:52.819Z,2.50
2023-05-23T18:01:20.755Z,2.58
2023-05-23T18:03:49.208Z,2.17
2023-05-23T18:06:16.926Z,3.00
2023-05-23T18:08:44.818Z,2.05
2023-05-23T18:11:13.316Z,2.10
2023-05-23T18:13:42.333Z,2.03
2023-05-23T18:16:10.109Z,2.33
2023-05-23T18:18:37.866Z,2.72
2023-05-23T18:21:06.223Z,2.88
2023-05-23T18:23:33.982Z,2.20
2023-05-23T18:26:01.835Z,2.55
2023-05-23T18:28:29.594Z,2.13
2023-05-23T18:30:58.678Z,2.42
2023-05-23T18:33:27.741Z,2.17
2023-05-23T18:35:55.588Z,2.58
2023-05-23T18:38:23.399Z,2.13
2023-05-23T18:40:51.267Z,1.70
2023-05-23T18:43:19.025Z,2.10
2023-05-23T18:45:46.806Z,1.83
2023-05-23T18:48:16.061Z,2.58
2023-05-23T18:50:43.981Z,2.03
2023-05-23T18:53:13.009Z,2.55
2023-05-23T18:55:40.695Z,2.20
2023-05-23T18:58:08.447Z,3.88
2023-05-23T19:00:36.493Z,1.90
2023-05-23T19:03:04.305Z,3.83
2023-05-23T19:05:33.495Z,1.83
2023-05-23T19:08:01.209Z,2.78
2023-05-23T19:10:28.871Z,2.00
2023-05-23T19:12:56.639Z,3.20
2023-05-23T19:15:24.984Z,2.85
2023-05-23T19:17:55.448Z,2.63
2023-05-23T19:20:23.112Z,2.70
2023-05-23T19:22:52.886Z,2.53
2023-05-23T19:25:21.061Z,2.40
2023-05-23T19:27:48.865Z,2.45
2023-05-23T19:30:17.416Z,2.50
2023-05-23T19:32:45.146Z,2.47
2023-05-23T19:35:15.731Z,2.28
2023-05-23T19:37:44.359Z,2.13
2023-05-23T19:40:16.206Z,3.28
2023-05-23T19:42:43.908Z,1.98
2023-05-23T19:45:12.322Z,3.10
2023-05-23T19:47:41.000Z,2.28
2023-05-23T19:50:10.741Z,2.13
2023-05-23T19:52:38.460Z,2.03
2023-05-23T19:55:06.708Z,2.40
2023-05-23T19:57:36.312Z,1.92
2023-05-23T20:00:06.379Z,2.05
2023-05-23T20:02:34.080Z,3.00
2023-05-23T20:05:02.196Z,2.25
2023-05-23T20:07:30.045Z,2.28
2023-05-23T20:09:58.394Z,2.40
2023-05-23T20:12:26.745Z,2.67
2023-05-23T20:14:55.844Z,2.38
2023-05-23T20:17:23.556Z,1.80
2023-05-23T20:19:51.277Z,2.20
2023-05-23T20:22:19.015Z,2.05
2023-05-23T20:24:46.734Z,2.25
2023-05-23T20:30:25.656Z,2.25
2023-05-23T20:32:54.413Z,2.15
2023-05-23T20:35:22.669Z,2.03
2023-05-23T20:37:51.656Z,2.95
2023-05-23T20:40:19.501Z,2.53
2023-05-23T20:42:47.547Z,2.85
2023-05-23T20:45:16.020Z,2.47
2023-05-23T20:47:46.430Z,3.22
2023-05-23T20:50:14.823Z,2.25
2023-05-23T20:52:43.279Z,2.30
2023-05-23T20:55:11.792Z,2.25
2023-05-23T20:57:39.642Z,2.20
2023-05-23T21:00:12.668Z,2.75
2023-05-23T21:02:40.674Z,2.25
2023-05-23T21:05:11.146Z,3.00
2023-05-23T21:07:39.443Z,2.47
2023-05-23T21:10:07.454Z,2.20
2023-05-23T21:12:35.252Z,2.05
2023-05-23T21:15:03.560Z,2.03
2023-05-23T21:17:31.247Z,2.83
2023-05-23T21:19:59.099Z,2.03
2023-05-23T21:22:28.129Z,3.08
2023-05-23T21:24:55.844Z,3.15
2023-05-23T21:27:23.778Z,2.38
2023-05-23T21:29:52.871Z,2.78
2023-05-23T21:32:21.376Z,2.85
2023-05-23T21:34:49.317Z,2.28
2023-05-23T21:37:17.094Z,2.75
2023-05-23T21:39:52.048Z,2.25
2023-05-23T21:42:21.686Z,2.55
2023-05-23T21:44:49.354Z,2.58
2023-05-23T21:47:17.060Z,1.98
2023-05-23T21:49:44.835Z,2.55
2023-05-23T21:52:12.529Z,2.78
2023-05-23T21:54:40.308Z,2.42
2023-05-23T21:57:09.392Z,3.60
2023-05-23T21:59:37.138Z,2.53
2023-05-23T22:02:05.027Z,2.35
2023-05-23T22:04:32.929Z,3.17
2023-05-23T22:07:00.713Z,2.45
2023-05-23T22:09:32.804Z,2.60
2023-05-23T22:12:00.702Z,2.67
2023-05-23T22:14:29.742Z,2.72
2023-05-23T22:16:59.211Z,2.70
2023-05-23T22:19:38.861Z,2.20
2023-05-23T22:22:07.942Z,2.45
2023-05-23T22:24:35.584Z,2.83
2023-05-23T22:27:18.059Z,2.67
2023-05-23T22:29:47.156Z,2.55
2023-05-23T22:32:14.846Z,2.65
2023-05-23T22:34:42.526Z,2.53
2023-05-23T22:37:10.298Z,3.03
2023-05-23T22:39:38.163Z,3.17
2023-05-23T22:42:06.404Z,2.83
2023-05-23T22:44:34.074Z,2.90
2023-05-23T22:47:03.979Z,2.95
2023-05-23T22:49:32.161Z,2.30
2023-05-23T22:52:08.316Z,3.20
2023-05-23T22:54:36.075Z,2.38
2023-05-23T22:57:03.754Z,3.50
2023-05-23T22:59:32.767Z,2.38
2023-05-23T23:02:00.654Z,2.60
2023-05-23T23:04:31.048Z,3.40
2023-05-23T23:06:59.231Z,2.60
2023-05-23T23:09:27.762Z,2.83
2023-05-23T23:11:55.587Z,1.77
2023-05-23T23:14:23.205Z,2.25
2023-05-23T23:16:51.033Z,2.83
2023-05-23T23:19:20.588Z,2.13
2023-05-23T23:21:49.636Z,2.35
2023-05-23T23:24:17.872Z,3.05
2023-05-23T23:26:45.506Z,2.47
2023-05-23T23:29:13.268Z,3.60
2023-05-23T23:31:41.024Z,2.92
2023-05-23T23:34:08.684Z,2.28
2023-05-23T23:36:39.657Z,2.25
2023-05-23T23:39:08.751Z,2.67
2023-05-23T23:41:36.378Z,3.03
2023-05-23T23:44:04.057Z,2.42
2023-05-23T23:46:31.816Z,3.05
2023-05-23T23:48:59.555Z,2.50
2023-05-23T23:51:27.194Z,2.83
2023-05-23T23:53:54.911Z,3.10
2023-05-23T23:56:26.199Z,3.80
2023-05-23T23:58:53.935Z,2.40
